Wetterdaten: Woche 30.07.01 - 05.08.01 (KW31)
Datum Zeit Temperatur Luftfeuchte Luftdruck Regenmenge Wind Richtung Taupunkt Windchill
30.07.2001 00:00 18.6 C 87 % 1018.1 hPa 0.0 l/m 0.2 km/h (0 Bft) O-SO 16.4 C 18.6 C
30.07.2001 01:00 18.6 C 88 % 1018.1 hPa 0.0 l/m 1.5 km/h (1 Bft) O-SO 16.6 C 18.6 C
30.07.2001 02:00 18.0 C 90 % 1018.1 hPa 0.0 l/m 1.2 km/h (1 Bft) O-SO 16.3 C 18.0 C
30.07.2001 03:00 17.3 C 92 % 1018.1 hPa 0.0 l/m 0.4 km/h (0 Bft) O-SO 15.9 C 17.3 C
30.07.2001 04:00 16.5 C 93 % 1018.1 hPa 0.0 l/m 0.0 km/h (0 Bft) N 15.3 C 16.5 C
30.07.2001 05:00 16.0 C 94 % 1018.4 hPa 0.0 l/m 0.0 km/h (0 Bft) N 15.0 C 16.0 C
30.07.2001 06:00 16.5 C 94 % 1019.1 hPa 0.0 l/m 0.4 km/h (0 Bft) O-SO 15.5 C 16.5 C
30.07.2001 07:00 17.3 C 92 % 1019.9 hPa 0.0 l/m 0.0 km/h (0 Bft) N 15.9 C 17.3 C
30.07.2001 08:00 18.6 C 85 % 1020.1 hPa 0.0 l/m 0.0 km/h (0 Bft) N 16.1 C 18.6 C
30.07.2001 09:00 20.4 C 78 % 1020.1 hPa 0.0 l/m 0.5 km/h (0 Bft) W-NW 16.5 C 20.4 C
30.07.2001 10:00 22.4 C 70 % 1020.1 hPa 0.0 l/m 0.7 km/h (0 Bft) W 16.6 C 22.4 C
30.07.2001 11:00 24.4 C 61 % 1020.1 hPa 0.0 l/m 2.4 km/h (1 Bft) W 16.4 C 24.4 C
30.07.2001 12:00 26.4 C 52 % 1020.1 hPa 0.0 l/m 0.8 km/h (0 Bft) NO 15.8 C 26.4 C
30.07.2001 13:00 27.8 C 47 % 1019.5 hPa 0.0 l/m 2.8 km/h (1 Bft) O-SO 15.2 C 27.8 C
30.07.2001 14:00 28.7 C 43 % 1019.1 hPa 0.0 l/m 2.7 km/h (1 Bft) N-NW 14.8 C 28.7 C
30.07.2001 15:00 29.9 C 34 % 1018.7 hPa 0.0 l/m 2.7 km/h (1 Bft) SO 12.5 C 29.9 C
30.07.2001 16:00 30.1 C 33 % 1019.1 hPa 0.0 l/m 4.7 km/h (1 Bft) O-SO 12.0 C 30.1 C
30.07.2001 17:00 30.2 C 35 % 1017.5 hPa 0.0 l/m 4.0 km/h (1 Bft) O-SO 13.0 C 30.2 C
30.07.2001 18:00 29.7 C 37 % 1018.1 hPa 0.0 l/m 3.1 km/h (1 Bft) O-SO 13.3 C 29.7 C
30.07.2001 19:00 28.8 C 40 % 1018.1 hPa 0.0 l/m 2.3 km/h (1 Bft) O-SO 14.0 C 28.8 C
30.07.2001 20:00 26.4 C 56 % 1018.1 hPa 0.0 l/m 1.2 km/h (1 Bft) O-SO 16.8 C 26.4 C
30.07.2001 21:00 22.5 C 68 % 1018.3 hPa 0.0 l/m 6.5 km/h (2 Bft) O-SO 16.2 C 22.5 C
30.07.2001 22:00 20.5 C 73 % 1019.1 hPa 0.0 l/m 4.4 km/h (1 Bft) O-SO 15.5 C 20.5 C
30.07.2001 23:00 19.2 C 78 % 1019.1 hPa 0.0 l/m 1.6 km/h (1 Bft) O-SO 15.3 C 19.2 C
31.07.2001 00:00 18.0 C 83 % 1019.1 hPa 0.0 l/m 2.1 km/h (1 Bft) O-SO 15.1 C 18.0 C
31.07.2001 01:00 17.3 C 87 % 1019.1 hPa 0.0 l/m 2.5 km/h (1 Bft) O-SO 15.1 C 17.3 C
31.07.2001 02:00 16.7 C 90 % 1018.1 hPa 0.0 l/m 2.3 km/h (1 Bft) O-SO 15.1 C 16.7 C
31.07.2001 03:00 16.4 C 90 % 1018.1 hPa 0.0 l/m 1.0 km/h (0 Bft) O-SO 14.8 C 16.4 C
31.07.2001 04:00 15.4 C 91 % 1018.1 hPa 0.0 l/m 2.0 km/h (1 Bft) O-SO 14.0 C 15.4 C
31.07.2001 05:00 15.0 C 93 % 1018.1 hPa 0.0 l/m 0.7 km/h (0 Bft) O-SO 13.9 C 15.0 C
31.07.2001 06:00 14.8 C 93 % 1018.1 hPa 0.0 l/m 2.3 km/h (1 Bft) O-SO 13.7 C 14.8 C
31.07.2001 07:00 16.0 C 91 % 1018.8 hPa 0.0 l/m 0.5 km/h (0 Bft) O-SO 14.6 C 16.0 C
31.07.2001 08:00 17.7 C 85 % 1019.1 hPa 0.0 l/m 0.5 km/h (0 Bft) O-SO 15.1 C 17.7 C
31.07.2001 09:00 20.0 C 72 % 1019.1 hPa 0.0 l/m 1.1 km/h (1 Bft) W-NW 14.8 C 20.0 C
31.07.2001 10:00 22.5 C 62 % 1019.1 hPa 0.0 l/m 1.2 km/h (1 Bft) S-SO 15.0 C 22.5 C
31.07.2001 11:00 24.8 C 56 % 1019.0 hPa 0.0 l/m 2.3 km/h (1 Bft) SO 15.4 C 24.8 C
31.07.2001 12:00 27.2 C 46 % 1018.1 hPa 0.0 l/m 2.3 km/h (1 Bft) W 14.4 C 27.2 C
31.07.2001 13:00 28.8 C 39 % 1018.1 hPa 0.0 l/m 3.2 km/h (1 Bft) SO 13.4 C 28.8 C
31.07.2001 14:00 30.2 C 36 % 1017.2 hPa 0.0 l/m 2.8 km/h (1 Bft) W 13.3 C 30.2 C
31.07.2001 15:00 31.5 C 36 % 1017.0 hPa 0.0 l/m 5.6 km/h (1 Bft) W-NW 14.3 C 31.5 C
31.07.2001 16:00 31.7 C 33 % 1017.0 hPa 0.0 l/m 12.9 km/h (3 Bft) W-NW 13.2 C 31.7 C
31.07.2001 17:00 31.0 C 34 % 1017.0 hPa 0.0 l/m 17.4 km/h (3 Bft) W-NW 13.0 C 31.0 C
31.07.2001 18:00 30.3 C 36 % 1017.0 hPa 0.0 l/m 10.4 km/h (2 Bft) W-NW 13.4 C 30.3 C
31.07.2001 19:00 28.7 C 43 % 1017.0 hPa 0.0 l/m 6.4 km/h (2 Bft) W-NW 14.9 C 28.7 C
31.07.2001 20:00 26.9 C 51 % 1017.2 hPa 0.0 l/m 1.7 km/h (1 Bft) W-NW 15.9 C 26.9 C
31.07.2001 21:00 24.2 C 61 % 1018.1 hPa 0.0 l/m 0.5 km/h (0 Bft) N-NO 16.3 C 24.2 C
31.07.2001 22:00 22.3 C 68 % 1018.3 hPa 0.0 l/m 0.7 km/h (0 Bft) O-NO 16.1 C 22.3 C
31.07.2001 23:00 21.6 C 69 % 1019.1 hPa 0.0 l/m 0.7 km/h (0 Bft) O 15.6 C 21.6 C
01.08.2001 00:00 19.8 C 76 % 1019.1 hPa 0.0 l/m 3.0 km/h (1 Bft) O-SO 15.4 C 19.8 C
01.08.2001 01:00 18.6 C 81 % 1019.1 hPa 0.0 l/m 1.3 km/h (1 Bft) O-SO 15.1 C 18.6 C
01.08.2001 02:00 17.9 C 84 % 1018.4 hPa 0.0 l/m 1.7 km/h (1 Bft) O 15.0 C 17.9 C
01.08.2001 03:00 17.1 C 87 % 1018.2 hPa 0.0 l/m 0.0 km/h (0 Bft) N 14.9 C 17.1 C
01.08.2001 04:00 16.8 C 89 % 1018.5 hPa 0.0 l/m 0.3 km/h (0 Bft) O-SO 14.9 C 16.8 C
01.08.2001 05:00 16.8 C 89 % 1018.6 hPa 0.0 l/m 0.0 km/h (0 Bft) N 15.0 C 16.8 C
01.08.2001 06:00 17.0 C 90 % 1019.1 hPa 0.0 l/m 0.0 km/h (0 Bft) N 15.3 C 17.0 C
01.08.2001 07:00 18.3 C 86 % 1019.1 hPa 0.0 l/m 0.7 km/h (0 Bft) O-SO 15.8 C 18.3 C
01.08.2001 08:00 19.3 C 81 % 1019.1 hPa 0.0 l/m 0.1 km/h (0 Bft) N 15.9 C 19.3 C
01.08.2001 09:00 21.1 C 75 % 1018.7 hPa 0.0 l/m 0.5 km/h (0 Bft) W 16.3 C 21.1 C
01.08.2001 10:00 23.5 C 67 % 1018.1 hPa 0.0 l/m 1.4 km/h (1 Bft) W-NW 16.9 C 23.5 C
01.08.2001 11:00 26.0 C 60 % 1018.1 hPa 0.0 l/m 3.7 km/h (1 Bft) O-SO 17.5 C 26.0 C
01.08.2001 12:00 27.6 C 52 % 1017.1 hPa 0.0 l/m 3.9 km/h (1 Bft) O-SO 16.9 C 27.6 C
01.08.2001 13:00 28.6 C 47 % 1016.9 hPa 0.0 l/m 3.1 km/h (1 Bft) O-SO 16.2 C 28.6 C
01.08.2001 14:00 29.7 C 43 % 1016.0 hPa 0.0 l/m 1.3 km/h (1 Bft) W-NW 15.8 C 29.7 C
01.08.2001 15:00 30.6 C 38 % 1015.8 hPa 0.0 l/m 0.8 km/h (0 Bft) W 14.7 C 30.6 C
01.08.2001 16:00 30.7 C 38 % 1014.9 hPa 0.0 l/m 1.2 km/h (1 Bft) W 14.9 C 30.7 C
01.08.2001 17:00 30.8 C 39 % 1014.9 hPa 0.0 l/m 1.4 km/h (1 Bft) O-SO 15.1 C 30.8 C
01.08.2001 18:00 30.8 C 40 % 1013.9 hPa 0.0 l/m 1.7 km/h (1 Bft) O 15.7 C 30.8 C
01.08.2001 19:00 29.4 C 46 % 1013.9 hPa 0.0 l/m 2.6 km/h (1 Bft) W-NW 16.5 C 29.4 C
01.08.2001 20:00 27.2 C 53 % 1013.9 hPa 0.0 l/m 1.6 km/h (1 Bft) W-NW 16.9 C 27.2 C
01.08.2001 21:00 24.7 C 61 % 1013.9 hPa 0.0 l/m 0.0 km/h (0 Bft) N 16.6 C 24.7 C
01.08.2001 22:00 22.3 C 71 % 1014.8 hPa 0.0 l/m 1.4 km/h (1 Bft) O-SO 16.7 C 22.3 C
01.08.2001 23:00 20.7 C 77 % 1014.5 hPa 0.0 l/m 0.7 km/h (0 Bft) O 16.5 C 20.7 C
02.08.2001 00:00 19.4 C 82 % 1013.9 hPa 0.0 l/m 0.0 km/h (0 Bft) N 16.2 C 19.4 C
02.08.2001 01:00 18.5 C 85 % 1013.8 hPa 0.0 l/m 0.0 km/h (0 Bft) N 15.9 C 18.5 C
02.08.2001 02:00 17.6 C 88 % 1012.8 hPa 0.0 l/m 0.0 km/h (0 Bft) N 15.7 C 17.6 C
02.08.2001 03:00 16.8 C 91 % 1012.8 hPa 0.0 l/m 2.2 km/h (1 Bft) O-SO 15.3 C 16.8 C
02.08.2001 04:00 16.3 C 91 % 1012.8 hPa 0.0 l/m 0.7 km/h (0 Bft) O 14.9 C 16.3 C
02.08.2001 05:00 15.5 C 92 % 1012.8 hPa 0.0 l/m 1.2 km/h (1 Bft) O 14.3 C 15.5 C
02.08.2001 06:00 15.6 C 93 % 1012.8 hPa 0.0 l/m 1.7 km/h (1 Bft) O-SO 14.4 C 15.6 C
02.08.2001 07:00 17.0 C 88 % 1012.0 hPa 0.0 l/m 0.0 km/h (0 Bft) N 15.1 C 17.0 C
02.08.2001 08:00 18.6 C 82 % 1011.8 hPa 0.0 l/m 0.8 km/h (0 Bft) W 15.5 C 18.6 C
02.08.2001 09:00 20.6 C 73 % 1011.8 hPa 0.0 l/m 0.1 km/h (0 Bft) N 15.5 C 20.6 C
02.08.2001 10:00 23.3 C 66 % 1011.1 hPa 0.0 l/m 4.0 km/h (1 Bft) O-SO 16.5 C 23.3 C
02.08.2001 11:00 25.6 C 60 % 1010.8 hPa 0.0 l/m 3.1 km/h (1 Bft) O-SO 17.3 C 25.6 C
02.08.2001 12:00 27.2 C 56 % 1010.8 hPa 0.0 l/m 3.3 km/h (1 Bft) W-NW 17.6 C 27.2 C
02.08.2001 13:00 29.4 C 50 % 1009.8 hPa 0.0 l/m 6.9 km/h (2 Bft) O-SO 17.9 C 29.4 C
02.08.2001 14:00 30.8 C 47 % 1009.1 hPa 0.0 l/m 7.3 km/h (2 Bft) O-SO 18.0 C 30.8 C
02.08.2001 15:00 31.9 C 42 % 1008.5 hPa 0.0 l/m 5.3 km/h (1 Bft) SO 17.3 C 31.9 C
02.08.2001 16:00 32.2 C 42 % 1007.6 hPa 0.0 l/m 1.9 km/h (1 Bft) O-SO 17.7 C 32.2 C
02.08.2001 17:00 31.5 C 46 % 1006.8 hPa 0.0 l/m 0.1 km/h (0 Bft) N 18.3 C 31.5 C
02.08.2001 18:00 29.5 C 57 % 1006.5 hPa 0.0 l/m 2.8 km/h (1 Bft) O-SO 20.0 C 29.5 C
02.08.2001 19:00 28.5 C 63 % 1005.6 hPa 0.0 l/m 0.9 km/h (0 Bft) O-SO 20.8 C 28.5 C
02.08.2001 20:00 26.4 C 72 % 1005.7 hPa 0.0 l/m 1.9 km/h (1 Bft) O-SO 21.0 C 26.4 C
02.08.2001 21:00 25.0 C 77 % 1006.2 hPa 0.0 l/m 2.0 km/h (1 Bft) O-SO 20.6 C 25.0 C
02.08.2001 22:00 25.1 C 67 % 1007.0 hPa 0.0 l/m 3.1 km/h (1 Bft) W-NW 18.6 C 25.1 C
02.08.2001 23:00 24.6 C 65 % 1007.7 hPa 0.0 l/m 0.0 km/h (0 Bft) N 17.5 C 24.6 C
03.08.2001 00:00 23.8 C 70 % 1008.3 hPa 0.0 l/m 4.0 km/h (1 Bft) NW 17.9 C 23.8 C
03.08.2001 01:00 23.0 C 68 % 1008.7 hPa 0.0 l/m 4.4 km/h (1 Bft) W-NW 16.8 C 23.0 C
03.08.2001 02:00 20.4 C 87 % 1009.6 hPa 3.6 l/m 6.2 km/h (2 Bft) O-SO 18.0 C 20.4 C
03.08.2001 03:00 19.8 C 91 % 1009.7 hPa 0.0 l/m 2.2 km/h (1 Bft) O-SO 18.3 C 19.8 C
03.08.2001 04:00 19.3 C 93 % 1009.7 hPa 0.0 l/m 1.7 km/h (1 Bft) O-SO 18.1 C 19.3 C
03.08.2001 05:00 19.3 C 93 % 1009.5 hPa 0.0 l/m 0.1 km/h (0 Bft) O-SO 18.2 C 19.3 C
03.08.2001 06:00 19.4 C 94 % 1009.6 hPa 0.0 l/m 0.0 km/h (0 Bft) N 18.4 C 19.4 C
03.08.2001 07:00 19.5 C 94 % 1009.7 hPa 0.0 l/m 0.0 km/h (0 Bft) N 18.5 C 19.5 C
03.08.2001 08:00 19.9 C 92 % 1009.7 hPa 0.0 l/m 1.1 km/h (0 Bft) W-NW 18.6 C 19.9 C
03.08.2001 09:00 20.6 C 88 % 1010.0 hPa 0.0 l/m 0.1 km/h (0 Bft) N 18.5 C 20.6 C
03.08.2001 10:00 21.2 C 82 % 1010.3 hPa 0.0 l/m 1.2 km/h (1 Bft) O 18.0 C 21.2 C
03.08.2001 11:00 21.5 C 77 % 1010.8 hPa 0.0 l/m 3.1 km/h (1 Bft) W-NW 17.2 C 21.5 C
03.08.2001 12:00 21.1 C 77 % 1010.8 hPa 0.3 l/m 0.3 km/h (0 Bft) N 16.9 C 21.1 C
03.08.2001 13:00 19.9 C 88 % 1010.8 hPa 1.9 l/m 2.8 km/h (1 Bft) O-SO 17.9 C 19.9 C
03.08.2001 14:00 20.5 C 88 % 1010.8 hPa 0.0 l/m 1.4 km/h (1 Bft) W 18.5 C 20.5 C
03.08.2001 15:00 20.7 C 86 % 1011.6 hPa 0.0 l/m 1.1 km/h (0 Bft) O 18.3 C 20.7 C
03.08.2001 16:00 18.4 C 90 % 1012.2 hPa 4.5 l/m 9.3 km/h (2 Bft) W-NW 16.7 C 18.4 C
03.08.2001 17:00 18.1 C 92 % 1012.7 hPa 0.6 l/m 1.9 km/h (1 Bft) O-SO 16.8 C 18.1 C
03.08.2001 18:00 18.2 C 93 % 1012.8 hPa 0.3 l/m 0.6 km/h (0 Bft) O-SO 17.0 C 18.2 C
03.08.2001 19:00 17.7 C 93 % 1012.5 hPa 0.0 l/m 0.2 km/h (0 Bft) O-SO 16.5 C 17.7 C
03.08.2001 20:00 17.6 C 95 % 1012.4 hPa 0.0 l/m 0.0 km/h (0 Bft) N 16.7 C 17.6 C
03.08.2001 21:00 17.2 C 93 % 1012.8 hPa 0.6 l/m 0.9 km/h (0 Bft) O-SO 16.0 C 17.2 C
03.08.2001 22:00 17.0 C 94 % 1013.0 hPa 2.3 l/m 0.1 km/h (0 Bft) N 16.0 C 17.0 C
03.08.2001 23:00 16.3 C 95 % 1013.3 hPa 2.3 l/m 0.2 km/h (0 Bft) NW 15.5 C 16.3 C
04.08.2001 00:00 16.2 C 95 % 1013.2 hPa 0.6 l/m 0.0 km/h (0 Bft) N 15.4 C 16.2 C
04.08.2001 01:00 16.1 C 95 % 1012.8 hPa 0.0 l/m 0.0 km/h (0 Bft) N 15.3 C 16.1 C
04.08.2001 02:00 16.0 C 96 % 1012.8 hPa 0.0 l/m 0.0 km/h (0 Bft) N 15.3 C 16.0 C
04.08.2001 03:00 16.1 C 96 % 1012.8 hPa 0.0 l/m 0.0 km/h (0 Bft) N 15.5 C 16.1 C
04.08.2001 04:00 16.4 C 96 % 1012.8 hPa 8.1 l/m 0.0 km/h (0 Bft) N 15.8 C 16.4 C
04.08.2001 05:00 16.3 C 96 % 1012.8 hPa 1.0 l/m 0.3 km/h (0 Bft) W-NW 15.7 C 16.3 C
04.08.2001 06:00 16.3 C 96 % 1012.7 hPa 0.0 l/m 0.0 km/h (0 Bft) N 15.6 C 16.3 C
04.08.2001 07:00 16.6 C 96 % 1012.8 hPa 0.0 l/m 0.0 km/h (0 Bft) N 16.0 C 16.6 C
04.08.2001 08:00 17.1 C 94 % 1013.1 hPa 0.0 l/m 0.0 km/h (0 Bft) N 16.0 C 17.1 C
04.08.2001 09:00 18.1 C 88 % 1013.9 hPa 0.0 l/m 0.2 km/h (0 Bft) NW 16.0 C 18.1 C
04.08.2001 10:00 18.9 C 80 % 1013.9 hPa 0.0 l/m 8.0 km/h (2 Bft) W-NW 15.3 C 18.9 C
04.08.2001 11:00 19.1 C 77 % 1013.9 hPa 0.0 l/m 7.4 km/h (2 Bft) NW 15.0 C 19.1 C
04.08.2001 12:00 17.4 C 85 % 1014.7 hPa 2.3 l/m 9.7 km/h (2 Bft) W-NW 14.9 C 17.4 C
04.08.2001 13:00 17.0 C 85 % 1014.9 hPa 0.0 l/m 9.9 km/h (2 Bft) W-NW 14.5 C 17.0 C
04.08.2001 14:00 18.3 C 81 % 1014.9 hPa 0.3 l/m 7.3 km/h (2 Bft) W-NW 15.1 C 18.3 C
04.08.2001 15:00 19.7 C 71 % 1015.0 hPa 0.0 l/m 13.0 km/h (3 Bft) W-NW 14.3 C 19.7 C
04.08.2001 16:00 20.1 C 69 % 1015.5 hPa 0.0 l/m 9.7 km/h (2 Bft) W-NW 14.2 C 20.1 C
04.08.2001 17:00 21.1 C 64 % 1015.1 hPa 0.0 l/m 8.3 km/h (2 Bft) W-NW 14.1 C 21.1 C
04.08.2001 18:00 21.4 C 60 % 1014.9 hPa 0.0 l/m 10.3 km/h (2 Bft) NW 13.3 C 21.4 C
04.08.2001 19:00 20.8 C 59 % 1014.9 hPa 0.0 l/m 7.7 km/h (2 Bft) W-NW 12.4 C 20.8 C
04.08.2001 20:00 18.7 C 67 % 1015.1 hPa 0.0 l/m 1.1 km/h (1 Bft) NW 12.5 C 18.7 C
04.08.2001 21:00 17.9 C 74 % 1015.9 hPa 0.0 l/m 0.2 km/h (0 Bft) O-SO 13.2 C 17.9 C
04.08.2001 22:00 17.4 C 80 % 1016.1 hPa 0.0 l/m 0.1 km/h (0 Bft) O-SO 13.9 C 17.4 C
04.08.2001 23:00 17.1 C 83 % 1016.8 hPa 0.0 l/m 1.4 km/h (1 Bft) O-SO 14.3 C 17.1 C
05.08.2001 00:00 16.7 C 85 % 1017.0 hPa 0.0 l/m 1.6 km/h (1 Bft) O-SO 14.1 C 16.7 C
05.08.2001 01:00 16.1 C 87 % 1017.0 hPa 0.0 l/m 0.1 km/h (0 Bft) O 13.9 C 16.1 C
05.08.2001 02:00 15.5 C 88 % 1017.0 hPa 0.0 l/m 2.1 km/h (1 Bft) O-SO 13.4 C 15.5 C
05.08.2001 03:00 14.4 C 92 % 1017.0 hPa 0.0 l/m 3.3 km/h (1 Bft) O-SO 13.0 C 14.4 C
05.08.2001 04:00 14.0 C 94 % 1017.0 hPa 0.0 l/m 3.8 km/h (1 Bft) O-SO 13.0 C 14.0 C
05.08.2001 05:00 13.6 C 93 % 1017.0 hPa 0.0 l/m 3.1 km/h (1 Bft) SO 12.5 C 13.6 C
05.08.2001 06:00 13.3 C 93 % 1017.1 hPa 0.0 l/m 3.2 km/h (1 Bft) SO 12.2 C 13.3 C
05.08.2001 07:00 14.0 C 92 % 1018.0 hPa 0.0 l/m 2.2 km/h (1 Bft) O-SO 12.7 C 14.0 C
05.08.2001 08:00 15.4 C 79 % 1017.4 hPa 0.0 l/m 1.3 km/h (1 Bft) W-NW 11.8 C 15.4 C
05.08.2001 09:00 16.7 C 69 % 1017.0 hPa 0.0 l/m 10.3 km/h (2 Bft) W-NW 10.9 C 16.7 C
05.08.2001 10:00 18.1 C 62 % 1017.2 hPa 0.0 l/m 9.7 km/h (2 Bft) W-NW 10.6 C 18.1 C
05.08.2001 11:00 19.1 C 57 % 1017.0 hPa 0.0 l/m 14.0 km/h (3 Bft) W-NW 10.4 C 19.1 C
05.08.2001 12:00 20.1 C 54 % 1017.0 hPa 0.0 l/m 14.6 km/h (3 Bft) W-NW 10.4 C 20.1 C
05.08.2001 13:00 20.9 C 51 % 1017.0 hPa 0.0 l/m 18.2 km/h (3 Bft) W-NW 10.3 C 20.9 C
05.08.2001 14:00 20.8 C 52 % 1017.0 hPa 0.0 l/m 16.9 km/h (3 Bft) W-NW 10.4 C 20.8 C
05.08.2001 15:00 20.6 C 56 % 1016.9 hPa 0.0 l/m 10.7 km/h (2 Bft) W-NW 11.4 C 20.6 C
05.08.2001 16:00 22.2 C 52 % 1016.1 hPa 0.0 l/m 8.2 km/h (2 Bft) W-NW 11.8 C 22.2 C
05.08.2001 17:00 22.3 C 45 % 1016.0 hPa 0.0 l/m 16.1 km/h (3 Bft) W-NW 9.7 C 22.3 C
05.08.2001 18:00 20.4 C 48 % 1016.2 hPa 0.0 l/m 16.0 km/h (3 Bft) W-NW 8.9 C 20.4 C
05.08.2001 19:00 19.3 C 54 % 1017.0 hPa 0.0 l/m 10.8 km/h (2 Bft) W-NW 9.6 C 19.3 C
05.08.2001 20:00 18.5 C 59 % 1017.0 hPa 0.0 l/m 14.4 km/h (3 Bft) W-NW 10.2 C 18.5 C
05.08.2001 21:00 17.3 C 65 % 1017.0 hPa 0.0 l/m 1.9 km/h (1 Bft) W-NW 10.7 C 17.3 C
05.08.2001 22:00 15.6 C 73 % 1017.0 hPa 0.0 l/m 0.7 km/h (0 Bft) O-SO 10.7 C 15.6 C
05.08.2001 23:00 13.9 C 82 % 1017.2 hPa 0.0 l/m 3.8 km/h (1 Bft) O-SO 10.9 C 13.9 C
Min-Datum _ 05.08.01 31.07.01 02.08.01 - 30.07.01 - 05.08.01 05.08.01
_ Min-Zeit 05:56 15:40 18:54 - 00:00 - 18:23 05:56
Minimum _ 13.2 C 26 % 1005.6 hPa - 0.0 km/h (0 Bft) - 8.5 C 13.2 C
Max-Datum _ 02.08.01 04.08.01 30.07.01 04.08.01 05.08.01 - 02.08.01 02.08.01
_ Max-Zeit 16:27 00:46 08:00 04:58 18:26 - 19:27 16:27
Maximum _ 32.8 C 96 % 1020.1 hPa 8.1 l/m 29.8 km/h
W-NW (5 Bft)
- 21.4 C 32.8 C
Durchschnitt _ 21.1 C 72 % 1015.1 hPa #28.7 l/m 3.2 km/h (1 Bft) O-SO 15.2 C 21.1 C

Durchschnitt Minimum Temp.20.3 C
Durchschnitt Maximum Temp.22.0 C
© Kaiko 2001